Aérodrome :
LOGIN :

S'inscrire | Disclaimer

   EN    FR    IT 

 










Légende :    VFR   VFR Marginal   IFR   IFR Intensif   IFR Très Intensif
Visi : 
Plafond : 
>= 8 km
>= 3000ft
5 à 8 km
1000 à 3000 ft
1500m à 5 km
500 à 1000 ft
800 à 1500m
200 à 500 ft
< 800m
< 200 ft
Symboles :   Orages  Brouillard  Fortes neiges  Fortes précipitations  Vent > 20 kt
SIGMETs :   Divers  Orages  Givrage  Turbulence  Onde Orograph.  Cendres Volcan.







- Altitude de l'aérodrome : 200 ft


EBBL - Klein Brogel AB

DERNIER METAR :
  • 271325Z 26008KT 9999 SCT060 BKN220 19/07 Q1010 BLU BLU

METARs EXPIRÉS :
  • 271255Z 27007KT 9999 SCT050 BKN220 19/06 Q1010 BLU BLU
  • 271239Z 29008KT 9999 SCT050 BKN220 19/07 Q1010 BLU BLU
  • 271055Z 27008KT 9999 SCT048 SCT220 19/07 Q1011 BLU BLU

TAF TAF EBBL
Valide du 27 à 13h jusqu'au 27 à 22h UTC


271141Z 2713/2722 28002KT 9999 SCT050 BKN150
Pas de NOTAMs connus pour ce terrain.



MET'MAP, la Météo Aéronautique d'un coup d'oeil ! - Copyright ORBIFLY Décembre 2007 - Disclaimer

ORBIFLY MET'MAP TEAM :

Programmation & Développement : Alexandra Zaïnal
Conception & Développement : Baudouin d'Aumeries
Co-Programmation & Développement : Marc-Olivier Méhu
Soutien technique & logistique : Manuel Goepfert

Contact : metmap@orbifly.com




SOURCES & CREDITS :

   NOAA